1897 NOT_NAMED (1897355S10063)


IBTrACS version v04r00. Visit IBTrACS website for data access.
Please direct all questions to the IBTrACS Q and A forum

Storm track - Intensity - Wind Radii - Intensity Data - Source Data - All data

Summary Information

Storm ID 1897355S10063
Start Dec 21 06Z
End Dec 31 06Z
ATCF IDs
Track status Best track data.

Storm track plot

Map of storm track

Intensity plots

No Intensity information for this storm


Radial wind information

No radial wind information for this storm


Position and Intensity Table

BASIN ISO_TIME_________ NATURE LAT LON
degrees north degrees east
SI 1897-12-21 06:00:00 NR -10.40 62.50
SI 09:00:00 NR -10.40 62.51
SI 12:00:00 NR -10.41 62.51
SI 15:00:00 NR -10.43 62.49
SI 18:00:00 NR -10.46 62.44
SI 21:00:00 NR -10.52 62.34
SI 1897-12-22 00:00:00 NR -10.61 62.20
SI 03:00:00 NR -10.74 61.99
SI 06:00:00 NR -10.90 61.70
SI 09:00:00 NR -11.11 61.33
SI 12:00:00 NR -11.36 60.90
SI 15:00:00 NR -11.64 60.40
SI 18:00:00 NR -11.95 59.87
SI 21:00:00 NR -12.27 59.31
SI 1897-12-23 00:00:00 NR -12.61 58.73
SI 03:00:00 NR -12.96 58.16
SI 06:00:00 NR -13.30 57.60
SI 09:00:00 NR -13.63 57.10
SI 12:00:00 NR -13.96 56.60
SI 15:00:00 NR -14.29 56.11
SI 18:00:00 NR -14.63 55.64
SI 21:00:00 NR -14.96 55.18
SI 1897-12-24 00:00:00 NR -15.28 54.73
SI 03:00:00 NR -15.60 54.30
SI 06:00:00 NR -15.90 53.90
SI 09:00:00 NR -16.18 53.49
SI 12:00:00 NR -16.46 53.11
SI 15:00:00 NR -16.72 52.74
SI 18:00:00 NR -16.97 52.40
SI 21:00:00 NR -17.22 52.08
SI 1897-12-25 00:00:00 NR -17.45 51.79
SI 03:00:00 NR -17.68 51.53
SI 06:00:00 NR -17.90 51.30
SI 09:00:00 NR -18.12 51.08
SI 12:00:00 NR -18.33 50.88
SI 15:00:00 NR -18.54 50.72
SI 18:00:00 NR -18.74 50.58
SI 21:00:00 NR -18.93 50.47
SI 1897-12-26 00:00:00 NR -19.12 50.39
SI 03:00:00 NR -19.31 50.33
SI 06:00:00 NR -19.50 50.30
SI 09:00:00 NR -19.66 50.25
SI 12:00:00 NR -19.82 50.21
SI 15:00:00 NR -19.97 50.21
SI 18:00:00 NR -20.14 50.23
SI 21:00:00 NR -20.31 50.28
SI 1897-12-27 00:00:00 NR -20.51 50.35
SI 03:00:00 NR -20.74 50.46
SI 06:00:00 NR -21.00 50.60
SI 09:00:00 NR -21.30 50.74
SI 12:00:00 NR -21.63 50.90
SI 15:00:00 NR -21.99 51.10
SI 18:00:00 NR -22.38 51.34
SI 21:00:00 NR -22.78 51.60
SI 1897-12-28 00:00:00 NR -23.21 51.90
SI 03:00:00 NR -23.65 52.23
SI 06:00:00 NR -24.10 52.60
SI 09:00:00 NR -24.54 52.94
SI 12:00:00 NR -24.99 53.30
SI 15:00:00 NR -25.45 53.71
SI 18:00:00 NR -25.93 54.15
SI 21:00:00 NR -26.41 54.65
SI 1897-12-29 00:00:00 NR -26.90 55.20
SI 03:00:00 NR -27.40 55.82
SI 06:00:00 NR -27.90 56.50
SI 09:00:00 NR -28.46 57.38
SI 12:00:00 NR -29.03 58.35
SI 15:00:00 NR -29.59 59.37
SI 18:00:00 NR -30.13 60.42
SI 21:00:00 NR -30.64 61.45
SI 1897-12-30 00:00:00 NR -31.09 62.42
SI 03:00:00 NR -31.48 63.28
SI 06:00:00 NR -31.80 64.00
SI 09:00:00 NR -32.04 64.54
SI 12:00:00 NR -32.20 64.92
SI 15:00:00 NR -32.31 65.15
SI 18:00:00 NR -32.37 65.27
SI 21:00:00 NR -32.38 65.28
SI 1897-12-31 00:00:00 NR -32.37 65.23
SI 03:00:00 NR -32.34 65.13
SI 06:00:00 NR -32.30 65.00

Source Information

Agency Information
USA
TOKYO
CMA
HKO
NEWDELHI
REUNION WMO-Best-Tracks.txt:Line=1805:xxxx897265
BOM
NADI
WELLINGTON
DS824
TD9636
TD9635
NEUMANN
MLC

All available IBTrACS Data

SEASON BASIN SUBBASIN ISO_TIME_________ NATURE LAT LON WMO AGENCY DIST2LAND LANDFALL IFLAG USA SSHS REUNION LAT REUNION LON REUNION TYPE REUNION TNUM STORM SPEED STORM DIR
Year degrees north degrees east km km 1 degrees north degrees east 1 kts degrees
1898 SI MM 1897-12-21 06:00:00 NR -10.40 62.50 reunion 1201 1201 _____O________ -1 -10.40 62.50 99 9.90 0 0
1898 SI MM 09:00:00 NR -10.40 62.51 1201 1201 _____P________ -1 -10.40 62.51 99 0 0
1898 SI MM 12:00:00 NR -10.41 62.51 1201 1201 _____P________ -1 -10.41 62.51 99 0 0
1898 SI MM 15:00:00 NR -10.43 62.49 1201 1186 _____P________ -1 -10.43 62.49 99 1 232
1898 SI MM 18:00:00 NR -10.46 62.44 1186 1186 _____P________ -1 -10.46 62.44 99 2 236
1898 SI MM 21:00:00 NR -10.52 62.34 1182 1167 _____P________ -1 -10.52 62.34 99 3 238
1898 SI MM 1897-12-22 00:00:00 NR -10.61 62.20 1167 1148 _____P________ -1 -10.61 62.20 99 4 239
1898 SI MM 03:00:00 NR -10.74 61.99 1148 1115 _____P________ -1 -10.74 61.99 99 6 239
1898 SI MM 06:00:00 NR -10.90 61.70 reunion 1115 1082 _____O________ -1 -10.90 61.70 99 9.90 7 240
1898 SI MM 09:00:00 NR -11.11 61.33 1078 1042 _____P________ -1 -11.11 61.33 99 9 240
1898 SI MM 12:00:00 NR -11.36 60.90 1032 994 _____P________ -1 -11.36 60.90 99 11 240
1898 SI MM 15:00:00 NR -11.64 60.40 994 947 _____P________ -1 -11.64 60.40 99 12 240
1898 SI MM 18:00:00 NR -11.95 59.87 947 889 _____P________ -1 -11.95 59.87 99 13 239
1898 SI MM 21:00:00 NR -12.27 59.31 889 847 _____P________ -1 -12.27 59.31 99 13 239
1898 SI MM 1897-12-23 00:00:00 NR -12.61 58.73 846 807 _____P________ -1 -12.61 58.73 99 13 239
1898 SI MM 03:00:00 NR -12.96 58.16 796 760 _____P________ -1 -12.96 58.16 99 13 238
1898 SI MM 06:00:00 NR -13.30 57.60 reunion 760 728 _____O________ -1 -13.30 57.60 99 9.90 12 237
1898 SI MM 09:00:00 NR -13.63 57.10 728 672 _____P________ -1 -13.63 57.10 99 12 236
1898 SI MM 12:00:00 NR -13.96 56.60 670 610 _____P________ -1 -13.96 56.60 99 12 235
1898 SI MM 15:00:00 NR -14.29 56.11 610 563 _____P________ -1 -14.29 56.11 99 12 234
1898 SI MM 18:00:00 NR -14.63 55.64 552 506 _____P________ -1 -14.63 55.64 99 11 234
1898 SI MM 21:00:00 NR -14.96 55.18 505 461 _____P________ -1 -14.96 55.18 99 11 233
1898 SI MM 1897-12-24 00:00:00 NR -15.28 54.73 450 407 _____P________ -1 -15.28 54.73 99 11 233
1898 SI MM 03:00:00 NR -15.60 54.30 407 368 _____P________ -1 -15.60 54.30 99 10 232
1898 SI MM 06:00:00 NR -15.90 53.90 reunion 368 333 _____O________ -1 -15.90 53.90 99 9.90 10 233
1898 SI MM 09:00:00 NR -16.18 53.49 333 299 _____P________ -1 -16.18 53.49 99 9 234
1898 SI MM 12:00:00 NR -16.46 53.11 304 279 _____P________ -1 -16.46 53.11 99 9 233
1898 SI MM 15:00:00 NR -16.72 52.74 274 255 _____P________ -1 -16.72 52.74 99 9 233
1898 SI MM 18:00:00 NR -16.97 52.40 259 243 _____P________ -1 -16.97 52.40 99 8 232
1898 SI MM 21:00:00 NR -17.22 52.08 243 222 _____P________ -1 -17.22 52.08 99 8 230
1898 SI MM 1897-12-25 00:00:00 NR -17.45 51.79 226 206 _____P________ -1 -17.45 51.79 99 7 229
1898 SI MM 03:00:00 NR -17.68 51.53 206 191 _____P________ -1 -17.68 51.53 99 6 226
1898 SI MM 06:00:00 NR -17.90 51.30 reunion 191 172 _____O________ -1 -17.90 51.30 99 9.90 6 224
1898 SI MM 09:00:00 NR -18.12 51.08 175 158 _____P________ -1 -18.12 51.08 99 6 223
1898 SI MM 12:00:00 NR -18.33 50.88 158 141 _____P________ -1 -18.33 50.88 99 5 219
1898 SI MM 15:00:00 NR -18.54 50.72 141 134 _____P________ -1 -18.54 50.72 99 5 215
1898 SI MM 18:00:00 NR -18.74 50.58 138 134 _____P________ -1 -18.74 50.58 99 5 210
1898 SI MM 21:00:00 NR -18.93 50.47 138 130 _____P________ -1 -18.93 50.47 99 4 205
1898 SI MM 1897-12-26 00:00:00 NR -19.12 50.39 133 128 _____P________ -1 -19.12 50.39 99 4 199
1898 SI MM 03:00:00 NR -19.31 50.33 130 130 _____P________ -1 -19.31 50.33 99 4 193
1898 SI MM 06:00:00 NR -19.50 50.30 reunion 137 137 _____O________ -1 -19.50 50.30 99 9.90 4 193
1898 SI MM 09:00:00 NR -19.66 50.25 137 137 _____P________ -1 -19.66 50.25 99 3 194
1898 SI MM 12:00:00 NR -19.82 50.21 142 142 _____P________ -1 -19.82 50.21 99 3 187
1898 SI MM 15:00:00 NR -19.97 50.21 146 146 _____P________ -1 -19.97 50.21 99 3 0
1898 SI MM 18:00:00 NR -20.14 50.23 146 146 _____P________ -1 -20.14 50.23 99 3 168
1898 SI MM 21:00:00 NR -20.31 50.28 160 160 _____P________ -1 -20.31 50.28 99 4 162
1898 SI MM 1897-12-27 00:00:00 NR -20.51 50.35 176 176 _____P________ -1 -20.51 50.35 99 5 158
1898 SI MM 03:00:00 NR -20.74 50.46 193 193 _____P________ -1 -20.74 50.46 99 5 155
1898 SI MM 06:00:00 NR -21.00 50.60 reunion 217 217 _____O________ -1 -21.00 50.60 99 9.90 6 155
1898 SI MM 09:00:00 NR -21.30 50.74 240 240 _____P________ -1 -21.30 50.74 99 7 156
1898 SI MM 12:00:00 NR -21.63 50.90 267 267 _____P________ -1 -21.63 50.90 99 8 154
1898 SI MM 15:00:00 NR -21.99 51.10 296 296 _____P________ -1 -21.99 51.10 99 9 152
1898 SI MM 18:00:00 NR -22.38 51.34 326 326 _____P________ -1 -22.38 51.34 99 9 150
1898 SI MM 21:00:00 NR -22.78 51.60 367 367 _____P________ -1 -22.78 51.60 99 10 148
1898 SI MM 1897-12-28 00:00:00 NR -23.21 51.90 409 402 _____P________ -1 -23.21 51.90 99 10 146
1898 SI MM 03:00:00 NR -23.65 52.23 409 408 _____P________ -1 -23.65 52.23 99 11 144
1898 SI MM 06:00:00 NR -24.10 52.60 reunion 417 417 _____O________ -1 -24.10 52.60 99 9.90 11 144
1898 SI MM 09:00:00 NR -24.54 52.94 433 433 _____P________ -1 -24.54 52.94 99 11 144
1898 SI MM 12:00:00 NR -24.99 53.30 461 461 _____P________ -1 -24.99 53.30 99 12 143
1898 SI MM 15:00:00 NR -25.45 53.71 496 493 _____P________ -1 -25.45 53.71 99 12 141
1898 SI MM 18:00:00 NR -25.93 54.15 522 522 _____P________ -1 -25.93 54.15 99 13 138
1898 SI MM 21:00:00 NR -26.41 54.65 566 566 _____P________ -1 -26.41 54.65 99 14 136
1898 SI MM 1897-12-29 00:00:00 NR -26.90 55.20 615 615 _____P________ -1 -26.90 55.20 99 14 134
1898 SI MM 03:00:00 NR -27.40 55.82 670 670 _____P________ -1 -27.40 55.82 99 15 131
1898 SI MM 06:00:00 NR -27.90 56.50 reunion 731 731 _____O________ -1 -27.90 56.50 99 9.90 17 128
1898 SI MM 09:00:00 NR -28.46 57.38 813 813 _____P________ -1 -28.46 57.38 99 20 125
1898 SI MM 12:00:00 NR -29.03 58.35 891 891 _____P________ -1 -29.03 58.35 99 21 123
1898 SI MM 15:00:00 NR -29.59 59.37 991 991 _____P________ -1 -29.59 59.37 99 21 121
1898 SI MM 18:00:00 NR -30.13 60.42 1083 1083 _____P________ -1 -30.13 60.42 99 21 120
1898 SI MM 21:00:00 NR -30.64 61.45 1179 1179 _____P________ -1 -30.64 61.45 99 20 119
1898 SI MM 1897-12-30 00:00:00 NR -31.09 62.42 1273 1273 _____P________ -1 -31.09 62.42 99 18 118
1898 SI MM 03:00:00 NR -31.48 63.28 1349 1349 _____P________ -1 -31.48 63.28 99 15 118
1898 SI MM 06:00:00 NR -31.80 64.00 reunion 1409 1409 _____O________ -1 -31.80 64.00 99 9.90 12 117
1898 SI MM 09:00:00 NR -32.04 64.54 1451 1451 _____P________ -1 -32.04 64.54 99 9 117
1898 SI MM 12:00:00 NR -32.20 64.92 1489 1489 _____P________ -1 -32.20 64.92 99 6 118
1898 SI MM 15:00:00 NR -32.31 65.15 1513 1513 _____P________ -1 -32.31 65.15 99 3 119
1898 SI MM 18:00:00 NR -32.37 65.27 1527 1527 _____P________ -1 -32.37 65.27 99 1 123
1898 SI MM 21:00:00 NR -32.38 65.28 1527 1522 _____P________ -1 -32.38 65.28 99 0 261
1898 SI MM 1897-12-31 00:00:00 NR -32.37 65.23 1522 1508 _____P________ -1 -32.37 65.23 99 1 288
1898 SI MM 03:00:00 NR -32.34 65.13 1508 1503 _____P________ -1 -32.34 65.13 99 2 291
1898 SI MM 06:00:00 NR -32.30 65.00 reunion 1503 _____O________ -1 -32.30 65.00 99 9.90 2 292